Time;durP1;ratioP1;P1;durP2;ratioP2;P2;SDS_P1;SDS_P2;PMS_P1;PMS_P2;Temp;Humidity;BMP_temperature;BMP_pressure;BME280_temperature;BME280_humidity;BME280_pressure;Samples;Min_cycle;Max_cycle;Signal;HPM_P1;HPM_P2
2022/08/18 00:01:08;;;;;;;17.85;9.40;;;18.90;99.90;;;;;;5068923;28;20036;-73
2022/08/18 00:03:34;;;;;;;18.20;9.55;;;18.90;99.90;;;;;;5067461;28;20090;-72
2022/08/18 00:06:00;;;;;;;19.65;10.00;;;18.80;99.90;;;;;;5050238;28;20053;-73
2022/08/18 00:08:28;;;;;;;21.17;9.95;;;18.80;99.90;;;;;;5060196;28;20040;-73
2022/08/18 00:10:55;;;;;;;25.55;9.75;;;18.80;99.90;;;;;;5061468;28;20049;-72
2022/08/18 00:13:21;;;;;;;15.55;9.55;;;18.90;99.90;;;;;;5051977;28;20045;-73
2022/08/18 00:15:47;;;;;;;21.42;9.90;;;18.80;99.90;;;;;;5052889;28;20086;-72
2022/08/18 00:18:13;;;;;;;17.27;8.85;;;18.90;99.90;;;;;;5066642;28;20060;-73
2022/08/18 00:20:39;;;;;;;21.00;9.38;;;18.80;99.90;;;;;;5070099;28;20108;-73
2022/08/18 00:23:06;;;;;;;25.75;9.40;;;18.80;99.90;;;;;;5070329;28;20119;-73
2022/08/18 00:25:32;;;;;;;24.17;9.40;;;18.80;99.90;;;;;;5046842;28;20106;-74
2022/08/18 00:28:00;;;;;;;26.48;9.55;;;18.80;99.90;;;;;;5066438;28;20057;-73
2022/08/18 00:30:26;;;;;;;25.73;9.88;;;18.80;99.90;;;;;;5065709;28;20036;-72
2022/08/18 00:32:55;;;;;;;22.92;9.32;;;18.70;99.90;;;;;;5049892;28;20083;-72
2022/08/18 00:35:31;;;;;;;25.60;9.25;;;18.70;99.90;;;;;;5060415;28;20066;-73
2022/08/18 00:37:58;;;;;;;22.92;9.07;;;18.70;99.90;;;;;;5042195;28;20485;-73
2022/08/18 00:40:30;;;;;;;21.75;8.95;;;18.70;99.90;;;;;;5042167;28;20045;-73
2022/08/18 00:43:03;;;;;;;25.90;9.43;;;18.70;99.90;;;;;;5064493;28;20530;-73
2022/08/18 00:45:36;;;;;;;20.02;8.23;;;18.70;99.90;;;;;;5059535;28;20083;-73
2022/08/18 00:48:05;;;;;;;24.42;9.38;;;18.70;99.90;;;;;;5062362;28;20048;-73
2022/08/18 00:50:33;;;;;;;26.33;10.23;;;18.60;99.90;;;;;;5064717;28;20044;-73
2022/08/18 00:53:05;;;;;;;22.48;9.02;;;18.60;99.90;;;;;;5042687;28;20052;-72
2022/08/18 00:55:32;;;;;;;24.13;9.18;;;18.60;99.90;;;;;;5062080;28;20052;-73
2022/08/18 00:58:07;;;;;;;21.13;8.73;;;18.50;99.90;;;;;;5063649;28;20123;-72
2022/08/18 01:00:35;;;;;;;23.05;8.63;;;18.50;99.90;;;;;;5046334;28;20060;-72
2022/08/18 01:03:06;;;;;;;18.10;8.38;;;18.50;99.90;;;;;;5055457;28;20124;-72
2022/08/18 01:05:42;;;;;;;25.77;8.93;;;18.40;99.90;;;;;;5039622;28;20503;-72
2022/08/18 01:08:13;;;;;;;24.70;8.30;;;18.40;99.90;;;;;;5064722;28;20041;-73
2022/08/18 01:10:39;;;;;;;22.52;8.90;;;18.40;99.90;;;;;;5057926;28;20040;-73
2022/08/18 01:13:05;;;;;;;18.02;9.00;;;18.30;99.90;;;;;;5058370;28;20108;-73
2022/08/18 01:15:32;;;;;;;20.50;9.18;;;18.30;99.90;;;;;;5070862;28;20044;-73
2022/08/18 01:23:53;;;;;;;17.30;7.82;;;18.20;99.90;;;;;;5072196;28;20048;-72
2022/08/18 01:26:21;;;;;;;28.95;9.68;;;18.10;99.90;;;;;;5050419;28;20369;-72
2022/08/18 01:28:48;;;;;;;24.88;8.85;;;18.10;99.90;;;;;;5070694;28;20473;-72
2022/08/18 01:31:55;;;;;;;19.02;9.02;;;18.00;99.90;;;;;;5065249;28;20468;-73
2022/08/18 01:34:25;;;;;;;16.17;8.50;;;18.00;99.90;;;;;;5007950;28;20375;-73
2022/08/18 01:36:53;;;;;;;18.25;9.68;;;18.00;99.90;;;;;;5007360;28;20111;-73
2022/08/18 01:39:20;;;;;;;19.90;9.23;;;18.00;99.90;;;;;;5033313;28;20102;-73
2022/08/18 01:41:46;;;;;;;23.55;9.48;;;18.00;99.90;;;;;;5072174;28;20044;-72
2022/08/18 01:44:12;;;;;;;17.52;9.02;;;18.10;99.90;;;;;;5048630;28;20040;-72
2022/08/18 01:46:40;;;;;;;20.77;9.85;;;18.00;99.90;;;;;;5051122;28;20041;-72
2022/08/18 01:49:07;;;;;;;19.98;10.38;;;18.10;99.90;;;;;;5047468;28;20047;-72
2022/08/18 01:51:36;;;;;;;18.90;10.20;;;18.10;99.90;;;;;;5069366;28;20078;-72
2022/08/18 01:54:03;;;;;;;22.23;11.70;;;18.10;99.90;;;;;;5070044;28;20069;-73
2022/08/18 01:56:29;;;;;;;24.48;11.55;;;18.20;99.90;;;;;;5070436;28;20493;-73
2022/08/18 01:58:55;;;;;;;20.95;11.10;;;18.20;99.90;;;;;;5063220;28;20469;-73
2022/08/18 02:01:23;;;;;;;21.27;11.25;;;18.30;99.90;;;;;;5041851;28;20142;-72
2022/08/18 02:03:54;;;;;;;25.65;12.13;;;18.30;99.90;;;;;;5066677;28;20052;-72
2022/08/18 02:06:20;;;;;;;29.23;12.13;;;18.30;99.90;;;;;;5051330;28;20037;-72
2022/08/18 02:08:47;;;;;;;26.25;12.27;;;18.30;99.90;;;;;;5068349;28;20358;-73
2022/08/18 02:11:13;;;;;;;21.77;10.02;;;18.30;99.90;;;;;;5071325;28;20046;-73
2022/08/18 02:13:40;;;;;;;21.75;11.25;;;18.20;99.90;;;;;;5045682;28;20041;-73
2022/08/18 02:16:06;;;;;;;15.30;9.45;;;18.30;99.90;;;;;;5044500;28;20123;-73
2022/08/18 02:18:35;;;;;;;24.92;11.10;;;18.30;99.90;;;;;;5056197;28;20052;-73
2022/08/18 02:21:27;;;;;;;22.80;10.77;;;18.30;99.90;;;;;;5071558;28;20037;-73
2022/08/18 02:23:53;;;;;;;30.48;11.57;;;18.40;99.90;;;;;;5062543;28;20109;-73
2022/08/18 02:26:19;;;;;;;28.23;11.35;;;18.40;99.90;;;;;;5062332;28;20044;-73
2022/08/18 02:28:44;;;;;;;27.83;10.90;;;18.50;99.90;;;;;;5048043;28;20066;-73
2022/08/18 02:31:14;;;;;;;24.27;10.60;;;18.50;99.90;;;;;;5054374;28;20086;-73
2022/08/18 02:33:40;;;;;;;29.70;10.50;;;18.50;99.90;;;;;;5064657;28;20154;-73
2022/08/18 02:36:06;;;;;;;27.35;10.50;;;18.50;99.90;;;;;;5039816;28;20376;-72
2022/08/18 02:38:33;;;;;;;24.80;9.88;;;18.60;99.90;;;;;;5056685;28;20083;-73
2022/08/18 02:41:01;;;;;;;35.03;11.55;;;18.60;99.90;;;;;;5084500;28;20044;-72
2022/08/18 02:43:27;;;;;;;20.20;10.43;;;18.60;99.90;;;;;;5065543;28;20044;-73
2022/08/18 02:45:53;;;;;;;23.13;11.25;;;18.60;99.90;;;;;;5053826;28;20045;-73
2022/08/18 02:48:37;;;;;;;29.13;12.07;;;18.60;99.90;;;;;;5067022;28;20060;-73
2022/08/18 02:51:11;;;;;;;26.67;12.60;;;18.60;99.90;;;;;;5046442;28;20040;-73
2022/08/18 02:53:41;;;;;;;22.35;11.95;;;18.60;99.90;;;;;;5043801;28;20079;-73
2022/08/18 02:58:49;;;;;;;26.45;11.85;;;18.70;99.90;;;;;;5061810;28;20125;-73
2022/08/18 03:01:15;;;;;;;31.05;12.82;;;18.70;99.90;;;;;;5069071;28;20380;-73
2022/08/18 03:03:41;;;;;;;25.33;12.25;;;18.70;99.90;;;;;;5048724;28;20037;-73
2022/08/18 03:06:06;;;;;;;30.63;12.43;;;18.70;99.90;;;;;;5064570;28;20377;-73
2022/08/18 03:08:33;;;;;;;24.23;11.60;;;18.70;99.90;;;;;;5058048;28;20055;-73
2022/08/18 03:10:58;;;;;;;22.23;11.23;;;18.80;99.90;;;;;;5071221;28;20048;-73
2022/08/18 03:13:24;;;;;;;24.92;11.52;;;18.80;99.90;;;;;;5069231;28;20040;-73
2022/08/18 03:15:51;;;;;;;25.73;12.32;;;18.80;99.90;;;;;;5053645;28;20037;-73
2022/08/18 03:18:17;;;;;;;21.10;11.55;;;18.70;99.90;;;;;;5042014;28;20554;-73
2022/08/18 03:20:44;;;;;;;20.55;11.00;;;18.80;99.90;;;;;;5046033;28;20040;-73
2022/08/18 03:23:10;;;;;;;21.85;10.57;;;18.80;99.90;;;;;;5068314;28;20053;-73
2022/08/18 03:25:43;;;;;;;24.63;11.07;;;18.80;99.90;;;;;;5070525;28;20177;-73
2022/08/18 03:28:09;;;;;;;25.95;10.23;;;18.80;99.90;;;;;;5052933;28;20041;-73
2022/08/18 03:30:35;;;;;;;21.55;10.65;;;18.80;99.90;;;;;;5046007;28;20121;-73
2022/08/18 03:33:00;;;;;;;24.27;10.88;;;18.80;99.90;;;;;;5053894;28;20102;-73
2022/08/18 03:35:26;;;;;;;26.13;10.85;;;18.90;99.90;;;;;;5042719;28;20051;-73
2022/08/18 03:37:54;;;;;;;23.33;10.82;;;18.80;99.90;;;;;;5034278;28;20049;-73
2022/08/18 03:40:20;;;;;;;28.00;10.40;;;18.80;99.90;;;;;;5057276;28;20210;-73
2022/08/18 03:42:46;;;;;;;24.35;10.05;;;18.80;99.90;;;;;;5055529;28;20492;-73
2022/08/18 03:45:12;;;;;;;28.08;10.27;;;18.80;99.90;;;;;;5040122;28;20385;-73
2022/08/18 03:47:39;;;;;;;18.88;9.27;;;18.80;99.90;;;;;;5017516;28;20469;-73
2022/08/18 03:50:05;;;;;;;25.75;10.25;;;18.80;99.90;;;;;;5039258;28;20091;-72
2022/08/18 03:52:31;;;;;;;28.65;9.75;;;18.90;99.90;;;;;;5050193;28;20068;-73
2022/08/18 03:54:57;;;;;;;24.58;10.38;;;18.90;99.90;;;;;;5062771;28;20139;-73
2022/08/18 03:57:22;;;;;;;27.25;10.40;;;18.90;99.90;;;;;;5035813;28;20512;-73
2022/08/18 03:59:48;;;;;;;28.17;9.60;;;18.90;99.90;;;;;;5033712;28;20083;-73
2022/08/18 04:02:14;;;;;;;24.10;10.43;;;18.90;99.90;;;;;;5023282;28;20361;-72
2022/08/18 04:04:40;;;;;;;22.80;10.68;;;18.90;99.90;;;;;;5065938;28;20033;-72
2022/08/18 04:07:09;;;;;;;26.38;10.57;;;18.80;99.90;;;;;;5044260;28;20053;-72
2022/08/18 04:09:37;;;;;;;21.88;10.15;;;18.90;99.90;;;;;;5061530;28;20047;-72
2022/08/18 04:12:11;;;;;;;24.27;9.75;;;18.80;99.90;;;;;;5070443;28;20380;-72
2022/08/18 04:14:39;;;;;;;26.92;10.25;;;18.80;99.90;;;;;;5065517;28;20055;-73
2022/08/18 04:17:05;;;;;;;25.10;10.18;;;18.90;99.90;;;;;;5063836;28;20037;-73
2022/08/18 04:19:33;;;;;;;24.92;9.88;;;18.80;99.90;;;;;;5045520;28;20385;-73
2022/08/18 04:22:01;;;;;;;25.17;10.50;;;18.90;99.90;;;;;;5052116;28;20040;-73
2022/08/18 04:24:29;;;;;;;27.13;10.57;;;18.90;99.90;;;;;;5027444;28;20098;-73
2022/08/18 04:26:57;;;;;;;22.08;9.75;;;18.90;99.90;;;;;;5052416;28;20120;-73
2022/08/18 04:29:23;;;;;;;24.17;9.43;;;18.90;99.90;;;;;;5051502;28;20080;-73
2022/08/18 04:31:50;;;;;;;21.42;9.45;;;18.90;99.90;;;;;;5058842;28;20081;-73
2022/08/18 04:34:19;;;;;;;23.77;9.93;;;18.80;99.90;;;;;;5037581;28;20436;-72
2022/08/18 04:36:45;;;;;;;21.85;9.85;;;18.80;99.90;;;;;;5044998;28;20040;-73
2022/08/18 04:39:12;;;;;;;19.98;9.57;;;18.80;99.90;;;;;;5047575;28;20043;-73
2022/08/18 04:41:40;;;;;;;20.38;9.50;;;18.80;99.90;;;;;;5053872;28;20045;-73
2022/08/18 04:44:08;;;;;;;20.30;9.40;;;18.80;99.90;;;;;;5054024;28;20049;-73
2022/08/18 04:46:40;;;;;;;16.80;8.30;;;18.90;99.90;;;;;;5032121;28;20044;-73
2022/08/18 04:49:08;;;;;;;18.38;8.80;;;18.80;99.90;;;;;;5046552;28;20037;-73
2022/08/18 04:51:34;;;;;;;20.20;8.65;;;18.80;99.90;;;;;;5056443;28;20128;-73
2022/08/18 04:54:00;;;;;;;20.50;9.38;;;18.80;99.90;;;;;;5039989;28;20056;-73
2022/08/18 04:56:31;;;;;;;17.27;8.43;;;18.90;99.90;;;;;;5049668;28;20041;-73
2022/08/18 04:59:03;;;;;;;19.52;9.63;;;18.90;99.90;;;;;;5087222;28;20048;-73
2022/08/18 05:01:33;;;;;;;16.20;8.65;;;18.90;99.90;;;;;;5061398;28;20064;-73
2022/08/18 05:04:00;;;;;;;24.60;9.20;;;18.90;99.90;;;;;;5053450;28;20068;-73
2022/08/18 05:06:28;;;;;;;18.83;8.73;;;19.00;99.90;;;;;;5063002;28;20105;-73
2022/08/18 05:09:00;;;;;;;19.08;9.10;;;18.90;99.90;;;;;;5041879;28;20072;-73
2022/08/18 05:11:32;;;;;;;17.63;8.68;;;19.00;99.90;;;;;;5062137;28;20048;-74
2022/08/18 05:13:58;;;;;;;;;;;18.90;99.90;;;;;;5053974;28;20394;-74
2022/08/18 05:16:25;;;;;;;22.20;9.10;;;18.90;99.90;;;;;;5059386;28;20373;-73
2022/08/18 05:18:52;;;;;;;14.20;9.30;;;18.90;99.90;;;;;;5050041;28;20049;-72
2022/08/18 05:21:20;;;;;;;14.32;8.57;;;19.00;99.90;;;;;;5050390;28;20055;-73
2022/08/18 05:23:47;;;;;;;18.08;8.88;;;18.90;99.90;;;;;;5036384;28;20056;-73
2022/08/18 05:26:15;;;;;;;20.35;8.60;;;18.90;99.90;;;;;;5064982;28;20052;-73
2022/08/18 05:28:42;;;;;;;15.50;8.40;;;18.90;99.90;;;;;;5067304;28;20037;-73
2022/08/18 05:31:10;;;;;;;22.48;9.48;;;18.90;99.90;;;;;;5050968;28;20139;-73
2022/08/18 05:33:39;;;;;;;18.38;9.48;;;18.90;99.90;;;;;;5072795;28;20072;-73
2022/08/18 05:36:23;;;;;;;17.38;9.35;;;18.90;99.90;;;;;;5053383;28;20047;-73
2022/08/18 05:38:52;;;;;;;17.70;9.30;;;18.90;99.90;;;;;;5057765;28;20103;-73
2022/08/18 05:41:24;;;;;;;20.05;9.63;;;18.90;99.90;;;;;;5061728;28;20044;-73
2022/08/18 05:43:51;;;;;;;16.35;8.60;;;19.00;99.90;;;;;;5052915;28;20047;-73
2022/08/18 05:46:17;;;;;;;21.08;9.30;;;19.00;99.90;;;;;;5036203;28;20041;-73
2022/08/18 05:48:44;;;;;;;21.98;9.10;;;19.10;99.90;;;;;;5055905;28;20040;-73
2022/08/18 05:51:23;;;;;;;15.70;8.55;;;19.20;99.90;;;;;;5060888;28;20076;-73
2022/08/18 05:56:46;;;;;;;17.85;10.10;;;19.30;99.90;;;;;;5069300;28;20435;-73
2022/08/18 05:59:19;;;;;;;25.27;9.85;;;19.40;99.90;;;;;;5063784;28;20053;-73
2022/08/18 06:01:51;;;;;;;16.70;9.88;;;19.50;99.90;;;;;;5068576;28;20052;-73
2022/08/18 06:04:33;;;;;;;18.13;9.35;;;19.50;99.90;;;;;;5051850;28;20124;-73
2022/08/18 06:07:04;;;;;;;14.50;8.80;;;19.50;99.90;;;;;;5036646;28;20052;-73
2022/08/18 06:09:47;;;;;;;17.98;8.30;;;19.60;99.90;;;;;;5049287;28;20145;-73
2022/08/18 06:12:19;;;;;;;20.92;9.45;;;19.60;99.90;;;;;;5048432;28;20041;-73
2022/08/18 06:14:46;;;;;;;15.90;9.57;;;19.60;99.90;;;;;;5054877;28;20153;-73
2022/08/18 06:17:34;;;;;;;18.50;9.05;;;19.70;99.90;;;;;;5064085;28;20040;-73
2022/08/18 06:20:13;;;;;;;19.00;9.60;;;19.80;99.90;;;;;;5059451;28;20374;-73
2022/08/18 06:22:48;;;;;;;18.92;9.23;;;19.70;99.90;;;;;;5059462;28;20056;-73
2022/08/18 06:25:29;;;;;;;16.13;9.13;;;19.70;99.90;;;;;;5040791;28;20043;-73
2022/08/18 06:28:06;;;;;;;12.57;8.40;;;19.70;99.90;;;;;;5067230;28;20131;-73
2022/08/18 06:30:41;;;;;;;15.07;10.07;;;19.80;99.90;;;;;;5050395;28;20063;-73
2022/08/18 06:33:12;;;;;;;15.60;8.60;;;19.70;99.90;;;;;;5071649;28;20127;-73
2022/08/18 06:35:51;;;;;;;15.63;9.10;;;19.80;99.90;;;;;;5070892;28;20093;-73
2022/08/18 06:41:10;;;;;;;18.98;9.00;;;20.00;99.90;;;;;;5065134;28;20041;-73
2022/08/18 06:43:54;;;;;;;15.60;8.50;;;20.00;99.90;;;;;;5066456;28;20044;-73
2022/08/18 06:46:28;;;;;;;12.40;8.40;;;20.00;99.90;;;;;;5063992;28;20124;-73
2022/08/18 06:48:58;;;;;;;15.70;9.25;;;20.10;99.90;;;;;;5068697;28;20047;-73
2022/08/18 06:51:27;;;;;;;18.00;8.97;;;20.20;99.90;;;;;;5039663;28;20041;-73
2022/08/18 06:53:52;;;;;;;17.05;8.77;;;20.20;99.90;;;;;;5051045;28;20731;-73
2022/08/18 06:56:26;;;;;;;12.02;7.90;;;20.30;99.90;;;;;;5037785;28;20140;-73
2022/08/18 06:58:54;;;;;;;14.32;7.43;;;20.40;99.90;;;;;;5051737;28;20059;-73
2022/08/18 07:01:23;;;;;;;15.25;8.10;;;20.40;99.90;;;;;;5065330;28;20380;-73
2022/08/18 07:03:53;;;;;;;15.43;7.63;;;20.40;99.90;;;;;;5071128;28;20127;-74
2022/08/18 07:06:22;;;;;;;14.23;7.18;;;20.50;99.90;;;;;;5052997;28;20114;-74
2022/08/18 07:08:54;;;;;;;15.10;6.50;;;20.50;99.90;;;;;;5044483;28;20045;-74
2022/08/18 07:11:27;;;;;;;10.63;6.70;;;20.60;99.90;;;;;;5069159;28;20473;-74
2022/08/18 07:14:20;;;;;;;14.18;6.60;;;20.50;99.90;;;;;;5063324;28;20047;-74
2022/08/18 07:16:47;;;;;;;13.15;7.05;;;20.50;99.90;;;;;;5058128;28;20094;-73
2022/08/18 07:19:19;;;;;;;14.95;6.53;;;20.60;99.90;;;;;;5034428;28;20080;-73
2022/08/18 07:21:46;;;;;;;10.10;6.60;;;20.50;99.90;;;;;;5034226;28;20045;-73
2022/08/18 07:24:24;;;;;;;13.65;6.85;;;20.60;99.90;;;;;;5039252;28;20041;-73
2022/08/18 07:27:05;;;;;;;12.65;6.18;;;20.60;99.90;;;;;;5070283;28;20036;-74
2022/08/18 07:29:35;;;;;;;14.32;6.65;;;20.70;99.90;;;;;;5038664;28;20195;-73
2022/08/18 07:32:16;;;;;;;15.15;7.03;;;20.70;99.90;;;;;;5034545;28;20044;-73
2022/08/18 07:34:47;;;;;;;14.20;6.38;;;20.80;99.90;;;;;;5063037;28;20054;-73
2022/08/18 07:37:22;;;;;;;13.68;6.60;;;20.80;99.90;;;;;;5065822;28;20499;-74
2022/08/18 07:39:55;;;;;;;15.60;6.43;;;20.90;99.90;;;;;;5068722;28;20384;-74
2022/08/18 07:42:38;;;;;;;14.90;6.30;;;20.90;99.90;;;;;;5050454;28;20074;-74
2022/08/18 07:45:08;;;;;;;17.02;7.25;;;20.80;99.90;;;;;;5065682;28;20040;-73
2022/08/18 07:47:49;;;;;;;13.80;6.60;;;20.80;99.90;;;;;;5067229;28;20084;-74
2022/08/18 07:50:16;;;;;;;10.73;6.22;;;20.70;99.90;;;;;;5070781;28;20499;-74
2022/08/18 07:53:07;;;;;;;13.40;6.45;;;20.60;99.90;;;;;;5070458;28;20045;-74
2022/08/18 07:55:34;;;;;;;11.88;6.13;;;20.60;99.90;;;;;;5062910;28;20504;-74
2022/08/18 07:58:31;;;;;;;12.20;6.00;;;20.60;99.90;;;;;;5062162;28;20090;-74
2022/08/18 08:01:09;;;;;;;11.57;6.03;;;20.50;99.90;;;;;;5069972;28;20040;-73
2022/08/18 08:04:15;;;;;;;7.93;4.68;;;20.50;99.90;;;;;;5060631;28;20044;-74
2022/08/18 08:07:08;;;;;;;10.05;4.53;;;20.40;99.90;;;;;;5046008;28;20377;-73
2022/08/18 08:10:12;;;;;;;9.73;4.07;;;20.40;99.90;;;;;;5057783;28;20557;-74
2022/08/18 08:13:19;;;;;;;8.52;4.45;;;20.40;99.90;;;;;;5071753;28;20083;-74
2022/08/18 08:16:01;;;;;;;10.48;4.82;;;20.50;99.90;;;;;;5069281;28;20036;-74
2022/08/18 08:18:35;;;;;;;;;;;20.50;99.90;;;;;;5060769;28;20109;-74
2022/08/18 08:21:08;;;;;;;12.32;4.28;;;20.50;99.90;;;;;;5074187;28;19916;-73
2022/08/18 08:23:44;;;;;;;12.40;5.45;;;20.60;99.90;;;;;;5051268;28;20048;-74
2022/08/18 08:26:41;;;;;;;10.32;5.38;;;20.70;99.90;;;;;;5085987;28;20044;-73
2022/08/18 08:29:22;;;;;;;11.82;4.70;;;20.90;99.90;;;;;;5071459;28;20392;-74
2022/08/18 08:32:03;;;;;;;11.48;4.43;;;21.00;99.90;;;;;;5068832;28;20032;-74
2022/08/18 08:34:45;;;;;;;8.85;3.78;;;21.10;99.90;;;;;;5070417;28;20053;-73
2022/08/18 08:37:27;;;;;;;10.60;3.92;;;21.30;99.90;;;;;;5065830;28;20040;-73
2022/08/18 08:39:59;;;;;;;10.40;3.80;;;21.40;99.90;;;;;;5062171;28;20049;-74
2022/08/18 08:42:55;;;;;;;6.70;3.30;;;21.40;99.90;;;;;;5037194;28;20063;-74
2022/08/18 08:45:27;;;;;;;6.22;3.60;;;21.60;99.90;;;;;;5067744;28;20040;-73
2022/08/18 08:48:16;;;;;;;8.20;3.25;;;21.70;99.90;;;;;;5089624;28;20051;-74
2022/08/18 08:50:54;;;;;;;9.10;3.10;;;21.80;99.90;;;;;;5064485;28;20473;-74
2022/08/18 08:53:31;;;;;;;8.05;3.00;;;21.70;99.90;;;;;;5055367;28;20048;-72
2022/08/18 08:56:02;;;;;;;7.38;3.10;;;21.80;99.90;;;;;;5070063;28;20525;-72
2022/08/18 08:58:34;;;;;;;7.90;3.15;;;21.80;99.90;;;;;;5060515;28;20106;-79
2022/08/18 09:01:01;;;;;;;11.40;2.72;;;21.90;99.90;;;;;;5073304;28;20059;-73
2022/08/18 09:03:44;;;;;;;5.10;2.28;;;21.90;99.90;;;;;;5072347;28;20144;-73
2022/08/18 09:06:33;;;;;;;8.82;2.90;;;21.80;99.90;;;;;;5058042;28;20089;-75
2022/08/18 09:09:17;;;;;;;6.72;2.10;;;21.90;99.90;;;;;;5069552;28;20038;-74
2022/08/18 09:12:00;;;;;;;6.75;2.80;;;22.00;99.90;;;;;;5073336;28;20090;-74
2022/08/18 09:14:47;;;;;;;4.47;2.15;;;22.00;99.90;;;;;;5073060;28;20041;-74
2022/08/18 09:17:39;;;;;;;3.97;2.33;;;22.10;99.90;;;;;;5068753;28;20056;-74
2022/08/18 09:20:20;;;;;;;4.28;2.25;;;22.20;99.90;;;;;;5086819;28;20048;-74
2022/08/18 09:22:49;;;;;;;;;;;22.40;99.90;;;;;;5073093;28;20123;-74
2022/08/18 09:25:37;;;;;;;6.30;2.20;;;22.50;99.90;;;;;;5048873;28;19917;-74
2022/08/18 09:28:11;;;;;;;3.20;1.85;;;22.60;99.90;;;;;;5060417;28;20037;-75
2022/08/18 09:30:46;;;;;;;5.35;2.20;;;22.60;99.90;;;;;;5061400;28;20056;-73
2022/08/18 09:33:23;;;;;;;3.50;2.15;;;22.60;99.90;;;;;;5040641;28;20044;-74
2022/08/18 09:36:42;;;;;;;6.18;2.45;;;22.60;99.90;;;;;;5072039;28;20048;-73
2022/08/18 09:43:02;;;;;;;5.38;2.50;;;22.60;99.90;;;;;;5067290;28;20115;-73
2022/08/18 09:45:31;;;;;;;7.55;2.92;;;22.50;99.90;;;;;;5055399;28;20063;-74
2022/08/18 09:48:12;;;;;;;5.13;2.97;;;22.50;99.90;;;;;;5071300;28;20488;-74
2022/08/18 09:50:51;;;;;;;;;;;22.50;99.90;;;;;;5067959;28;20063;-74
2022/08/18 09:54:06;;;;;;;6.55;2.40;;;22.50;99.90;;;;;;5041978;28;20142;-73
2022/08/18 09:56:51;;;;;;;5.72;2.50;;;22.40;99.90;;;;;;5057285;28;20049;-74
2022/08/18 09:59:32;;;;;;;6.40;2.25;;;22.50;99.90;;;;;;5057837;28;20619;-73
2022/08/18 10:02:00;;;;;;;8.02;2.60;;;22.50;99.90;;;;;;5065182;28;20093;-73
2022/08/18 10:04:50;;;;;;;6.55;2.63;;;22.50;99.90;;;;;;5070309;28;20036;-73
2022/08/18 10:07:29;;;;;;;8.57;2.58;;;22.60;99.90;;;;;;5072116;28;20036;-74
2022/08/18 10:10:23;;;;;;;6.30;2.50;;;22.60;99.90;;;;;;5069975;28;20462;-74
2022/08/18 10:13:07;;;;;;;5.68;3.03;;;22.70;99.90;;;;;;5058709;28;20120;-74
2022/08/18 10:15:51;;;;;;;5.97;2.70;;;22.70;99.90;;;;;;5065357;28;20044;-74
2022/08/18 10:18:28;;;;;;;6.30;2.70;;;22.70;99.90;;;;;;5070870;28;20386;-74
2022/08/18 10:21:27;;;;;;;7.80;2.97;;;22.70;99.90;;;;;;5064869;28;20127;-74
2022/08/18 10:24:07;;;;;;;8.85;2.90;;;22.60;99.90;;;;;;5064685;28;20527;-74
2022/08/18 10:26:33;;;;;;;8.07;2.55;;;22.50;99.90;;;;;;5063831;28;20037;-74
2022/08/18 10:29:03;;;;;;;7.22;2.70;;;22.40;99.90;;;;;;5051986;28;20120;-74
2022/08/18 10:31:50;;;;;;;5.13;2.53;;;22.30;99.90;;;;;;5047868;28;20120;-75
2022/08/18 10:34:52;;;;;;;8.02;2.72;;;22.30;99.90;;;;;;5062439;28;20049;-74
2022/08/18 10:37:20;;;;;;;4.90;2.75;;;22.30;99.90;;;;;;5065489;28;20119;-74
2022/08/18 10:39:51;;;;;;;6.78;2.88;;;22.40;99.90;;;;;;5048302;28;20044;-74
2022/08/18 10:42:30;;;;;;;;;;;22.40;99.90;;;;;;5038492;28;20133;-74
2022/08/18 10:45:29;;;;;;;4.00;2.03;;;22.50;99.90;;;;;;5047414;28;19916;-74
2022/08/18 10:48:20;;;;;;;5.00;2.28;;;22.80;99.90;;;;;;5056084;28;20055;-73
2022/08/18 10:51:06;;;;;;;6.65;2.20;;;23.10;99.90;;;;;;5059178;28;20190;-74
2022/08/18 10:53:53;;;;;;;5.10;2.20;;;23.10;99.90;;;;;;5047238;28;20049;-74
2022/08/18 10:56:22;;;;;;;5.70;2.33;;;23.30;99.90;;;;;;5050230;28;20037;-74
2022/08/18 10:59:06;;;;;;;5.60;2.00;;;23.10;99.90;;;;;;5063556;28;20574;-74
2022/08/18 11:01:47;;;;;;;5.13;2.15;;;23.00;99.90;;;;;;5052556;28;20132;-75
2022/08/18 11:04:27;;;;;;;3.10;2.28;;;23.10;99.90;;;;;;5045660;28;20135;-75
2022/08/18 11:07:03;;;;;;;4.75;2.22;;;23.40;99.90;;;;;;5064728;28;20380;-75
2022/08/18 11:09:30;;;;;;;6.63;2.95;;;23.50;99.90;;;;;;5070320;28;20048;-75
2022/08/18 11:12:00;;;;;;;4.22;2.20;;;23.60;99.90;;;;;;5055379;28;20056;-75
2022/08/18 11:14:51;;;;;;;4.00;2.28;;;23.60;99.90;;;;;;5030540;28;20047;-75
2022/08/18 11:18:08;;;;;;;4.03;2.50;;;23.60;99.90;;;;;;5054037;28;20040;-75
2022/08/18 11:20:34;;;;;;;6.28;2.38;;;23.40;99.90;;;;;;5045359;28;20489;-75
2022/08/18 11:23:02;;;;;;;4.75;2.35;;;23.40;99.90;;;;;;5065145;28;20101;-74
2022/08/18 11:25:34;;;;;;;4.57;2.55;;;23.40;99.90;;;;;;5062666;28;20044;-74
2022/08/18 11:28:01;;;;;;;7.80;2.90;;;23.50;99.90;;;;;;5054566;28;20481;-74
2022/08/18 11:30:41;;;;;;;3.67;2.53;;;23.60;99.90;;;;;;5027368;28;20082;-75
2022/08/18 11:33:07;;;;;;;6.03;2.67;;;23.50;99.90;;;;;;5059639;28;20496;-75
2022/08/18 11:35:47;;;;;;;4.65;2.40;;;23.50;99.90;;;;;;5049938;28;20485;-75
2022/08/18 11:38:14;;;;;;;5.33;2.23;;;23.30;99.90;;;;;;5058233;28;20053;-74
2022/08/18 11:40:51;;;;;;;5.25;2.28;;;23.10;99.90;;;;;;5055907;28;20537;-74
2022/08/18 11:43:18;;;;;;;5.88;2.30;;;23.00;99.90;;;;;;5062622;28;20358;-74
2022/08/18 11:45:49;;;;;;;5.20;2.53;;;22.90;99.90;;;;;;5069342;28;20415;-74
2022/08/18 11:48:27;;;;;;;3.60;2.40;;;22.90;99.90;;;;;;5069572;28;20045;-75
2022/08/18 11:50:55;;;;;;;4.50;2.22;;;23.00;99.90;;;;;;5070401;28;20087;-74
2022/08/18 11:53:49;;;;;;;5.18;2.30;;;22.90;99.90;;;;;;5066421;28;20354;-76
2022/08/18 11:56:20;;;;;;;3.78;2.00;;;22.90;99.90;;;;;;5062654;28;20043;-75
2022/08/18 11:59:31;;;;;;;3.47;2.10;;;22.80;99.90;;;;;;5053768;28;20115;-74
2022/08/18 12:01:58;;;;;;;2.67;1.80;;;23.00;99.90;;;;;;5068039;28;20481;-75
2022/08/18 12:04:41;;;;;;;4.00;2.00;;;23.00;99.90;;;;;;5063699;28;20076;-74
2022/08/18 12:07:18;;;;;;;5.72;1.85;;;23.20;99.90;;;;;;5062497;28;20144;-74
2022/08/18 12:09:46;;;;;;;3.28;1.75;;;23.50;99.90;;;;;;5062356;28;20501;-74
2022/08/18 12:12:15;;;;;;;2.95;1.90;;;23.70;99.90;;;;;;5070377;28;20075;-74
2022/08/18 12:14:52;;;;;;;2.42;1.90;;;23.90;99.90;;;;;;5069953;28;20185;-74
2022/08/18 12:17:18;;;;;;;4.65;1.70;;;24.10;99.90;;;;;;5046363;28;20819;-75
2022/08/18 12:19:44;;;;;;;2.63;1.65;;;24.10;99.90;;;;;;5063959;28;20040;-75
2022/08/18 12:22:22;;;;;;;4.30;1.73;;;24.40;99.90;;;;;;5070114;28;20550;-74
2022/08/18 12:24:49;;;;;;;3.28;1.60;;;24.30;99.90;;;;;;5053044;28;20608;-75
2022/08/18 12:27:19;;;;;;;2.70;2.03;;;24.50;99.90;;;;;;5052625;28;20600;-74
2022/08/18 12:29:45;;;;;;;3.22;1.80;;;24.70;99.90;;;;;;5064369;28;20041;-74
2022/08/18 12:32:11;;;;;;;5.22;2.10;;;24.90;99.90;;;;;;5038237;28;20090;-74
2022/08/18 12:34:37;;;;;;;4.47;1.80;;;25.10;99.90;;;;;;5069799;28;20157;-74
2022/08/18 12:37:06;;;;;;;2.22;1.85;;;25.10;99.90;;;;;;5060057;28;20552;-74
2022/08/18 12:39:32;;;;;;;4.32;2.50;;;25.20;99.90;;;;;;5053438;28;20367;-75
2022/08/18 12:41:59;;;;;;;3.65;2.03;;;25.40;99.90;;;;;;5061183;28;20043;-74
2022/08/18 12:44:25;;;;;;;3.10;2.25;;;25.60;99.90;;;;;;5052241;28;20135;-74
2022/08/18 12:46:51;;;;;;;2.47;2.25;;;25.70;99.90;;;;;;5063706;28;20123;-75
2022/08/18 12:49:20;;;;;;;3.28;2.08;;;25.90;99.90;;;;;;5059795;28;20056;-75
2022/08/18 12:51:47;;;;;;;3.13;1.90;;;26.00;99.90;;;;;;5045704;28;20390;-75
2022/08/18 12:54:13;;;;;;;3.92;1.98;;;26.10;99.90;;;;;;5051220;28;20393;-74
2022/08/18 12:56:40;;;;;;;2.88;2.60;;;26.30;99.90;;;;;;5055530;28;20500;-75
2022/08/18 12:59:08;;;;;;;4.43;2.90;;;26.50;99.90;;;;;;5049442;28;20052;-75
2022/08/18 13:01:36;;;;;;;5.63;2.90;;;27.20;99.90;;;;;;5064163;28;20032;-75
2022/08/18 13:04:03;;;;;;;4.45;2.53;;;27.70;99.90;;;;;;5061672;28;20083;-75
2022/08/18 13:06:32;;;;;;;4.53;2.67;;;27.70;99.90;;;;;;5067925;28;20049;-75
2022/08/18 13:08:58;;;;;;;3.30;1.90;;;28.00;99.90;;;;;;5070100;28;20040;-75
2022/08/18 13:11:25;;;;;;;3.67;1.85;;;28.30;99.90;;;;;;5069969;28;20143;-75
2022/08/18 13:13:54;;;;;;;4.47;2.28;;;28.60;99.90;;;;;;5044688;28;20508;-75
2022/08/18 13:16:20;;;;;;;3.53;2.10;;;28.50;99.90;;;;;;5066410;28;20044;-75
2022/08/18 13:18:49;;;;;;;3.65;2.03;;;28.30;99.90;;;;;;5066664;28;20046;-75
2022/08/18 13:21:17;;;;;;;2.95;1.85;;;28.60;99.90;;;;;;5064280;28;20051;-75
2022/08/18 13:23:43;;;;;;;3.92;2.20;;;28.90;99.90;;;;;;5071942;28;20044;-75
2022/08/18 13:26:24;;;;;;;2.85;1.83;;;29.70;99.90;;;;;;5072269;28;20380;-76
2022/08/18 13:28:50;;;;;;;2.85;1.77;;;29.80;99.90;;;;;;5061415;28;20048;-75